Main page
METAR-TAF:

METAR-TAF

Airports :

Granada, Spain

Base Aérea de Armilla

latitude: 37-08N, longitude: 003-38-08W, elevation: 700 m

Current weather observation

The report was made 11 hours and 31 minutes ago, at 17:00 UTC
Wind 12 kt from the South
Temperature 18°C
Humidity 68%
Pressure 1017 hPa
Visibility 10 km or more
Scattered clouds at a height of 4500 ft
Scattered clouds at a height of 8000 ft

METAR: LEGA 261700Z 19012KT 9999 SCT045 SCT080 18/12 Q1017

Time: 06:31 (04:31 UTC)

Forecast

The report was made 14 hours and 31 minutes ago, at 14:00 UTC
Forecast valid from 26 at 15 UTC to 26 at 24 UTC
Wind 8 kt from the South
Visibility 10 km or more
Few clouds at a height of 2000 ft
Scattered clouds at a height of 4000 ft
Probability 40% :
Temporary
from 26 at 15 UTC to 26 at 19 UTC
Visibility: 4000 m
Scattered clouds at a height of 2000 ft, Cumulonimbus.
rain showers

TAF: LEGA 261400Z 2615/2624 19008KT 9999 FEW020 SCT040 PROB40 TEMPO 2615/2619 4000 SHRA SCT020CB

Weather observations and forecasts of more than 4000 airports (METAR and TAF reports).

The available stations are represented by yellow and red dots on the map.

Hover mouse over dot to see the name of the station.

Then click to see weather observations and forecasts.

To change the map : click on the green buttons with a black cross to zoom in, on the green button with a dash to zoom out, or on the green arrows for adjacent maps.


METAR-TAF: